Caribou Municipal Airport Caribou US
ICAO: KCAR
IATA: CAR
Category: Medium
Scheduled Services: No

Elevation: 626 ft
TransAlt. 18000 ft.

Airport Communications:
ASOS:135.125
BOSTON CNTR:124.75
BANGOR RDO:122.3
CTAF/UNICOM:122.8

KCAR Zoom In..

If you have problems with the map follow the link
https://www.worldairports.se/pages/airport.php?
ICAO=KCAR

Runways:

(A) RW 01 length 4003 ft width 100 ft
---- / hdg 7

(B) RW 11 length 3016 ft width 75 ft
---- / hdg 107

(C) RW 19 length 4003 ft width 100 ft
---- / hdg 187

(D) RW 29 length 3016 ft width 75 ft
---- / hdg 287

Location; KCAR
Day. 27 / Time. 05.54 Zulu
* Altimeter: 29.36
* Temperature: 01° c. 33.8°f.
* Wind from: 240° Speed 08 kn.
Dewpoint: -01° c.
Visibility: 8 Statute Miles.
Clouds: Broken 1000 ft.
Clouds: Overcast 4500 ft.
Conditions: Light Snow.

KCAR 270554Z AUTO 24008KT 8SM -SN BKN010 OVC045 01/M01 A2936 RMK AO2 SLP951 P0002 60006 I6000 T00061006 10011 20006 58010


Wind From 240°
Speed 08 kn.

 
 
jpsmedia worldairports.se 2020   terms of use